createdAt,value
2022-11-19T00:01:04.066Z,4.10
2022-11-19T00:03:33.795Z,3.75
2022-11-19T00:06:11.083Z,3.60
2022-11-19T00:08:38.152Z,4.82
2022-11-19T00:11:09.661Z,3.30
2022-11-19T00:13:37.580Z,3.15
2022-11-19T00:16:05.966Z,3.78
2022-11-19T00:18:32.944Z,4.90
2022-11-19T00:21:10.666Z,2.42
2022-11-19T00:23:37.823Z,2.72
2022-11-19T00:26:09.926Z,2.47
2022-11-19T00:28:36.802Z,3.88
2022-11-19T00:31:05.005Z,3.28
2022-11-19T00:33:31.545Z,3.60
2022-11-19T00:35:59.395Z,4.63
2022-11-19T00:38:27.045Z,3.75
2022-11-19T00:40:53.706Z,2.63
2022-11-19T00:43:39.071Z,5.13
2022-11-19T00:46:06.109Z,5.78
2022-11-19T00:48:32.552Z,5.38
2022-11-19T00:50:59.002Z,3.80
2022-11-19T00:53:25.435Z,3.22
2022-11-19T00:55:52.252Z,4.63
2022-11-19T00:58:19.388Z,8.63
2022-11-19T01:00:47.221Z,3.17
2022-11-19T01:03:13.646Z,5.05
2022-11-19T01:05:40.193Z,4.03
2022-11-19T01:08:06.613Z,9.20
2022-11-19T01:10:34.584Z,6.25
2022-11-19T01:13:19.576Z,4.10
2022-11-19T01:15:49.907Z,4.93
2022-11-19T01:18:17.614Z,5.35
2022-11-19T01:20:44.507Z,5.65
2022-11-19T01:23:11.298Z,5.40
2022-11-19T01:25:37.746Z,4.47
2022-11-19T01:28:04.498Z,6.88
2022-11-19T01:30:31.295Z,6.30
2022-11-19T01:32:57.709Z,6.05
2022-11-19T01:35:24.143Z,5.13
2022-11-19T01:37:51.434Z,6.43
2022-11-19T01:40:17.855Z,9.02
2022-11-19T01:42:50.419Z,6.78
2022-11-19T01:45:36.221Z,7.05
2022-11-19T01:48:13.254Z,7.60
2022-11-19T01:50:45.912Z,7.32
2022-11-19T01:53:13.460Z,7.05
2022-11-19T01:55:41.883Z,13.48
2022-11-19T01:58:08.697Z,15.10
2022-11-19T02:00:35.167Z,13.68
2022-11-19T02:03:01.703Z,13.02
2022-11-19T02:05:28.355Z,9.65
2022-11-19T02:07:58.634Z,7.55
2022-11-19T02:10:41.098Z,12.10
2022-11-19T02:13:29.775Z,9.20
2022-11-19T02:16:26.299Z,13.52
2022-11-19T02:19:12.030Z,12.95
2022-11-19T02:22:03.706Z,15.48
2022-11-19T02:24:52.302Z,15.45
2022-11-19T02:27:42.902Z,14.02
2022-11-19T02:30:17.575Z,15.88
2022-11-19T02:33:22.938Z,16.73
2022-11-19T02:36:02.203Z,15.15
2022-11-19T02:41:00.076Z,11.93
2022-11-19T02:43:32.949Z,14.88
2022-11-19T02:46:04.225Z,13.25
2022-11-19T02:48:47.254Z,15.45
2022-11-19T02:51:14.372Z,14.80
2022-11-19T02:53:40.770Z,18.20
2022-11-19T02:56:49.686Z,14.52
2022-11-19T02:59:37.412Z,17.73
2022-11-19T03:02:25.285Z,19.30
2022-11-19T03:04:52.025Z,21.23
2022-11-19T03:07:19.537Z,16.27
2022-11-19T03:09:50.872Z,14.77
2022-11-19T03:12:39.221Z,21.73
2022-11-19T03:15:38.516Z,15.85
2022-11-19T03:20:42.342Z,19.75
2022-11-19T03:23:20.308Z,18.90
2022-11-19T03:25:50.725Z,20.23
2022-11-19T03:28:21.682Z,19.75
2022-11-19T03:30:49.276Z,16.05
2022-11-19T03:33:21.986Z,13.70
2022-11-19T03:35:52.402Z,21.38
2022-11-19T03:38:23.629Z,21.48
2022-11-19T03:40:50.574Z,19.65
2022-11-19T03:43:18.790Z,8.38
2022-11-19T03:45:46.345Z,5.00
2022-11-19T03:48:15.296Z,3.50
2022-11-19T03:50:54.788Z,3.47
2022-11-19T03:53:21.848Z,4.70
2022-11-19T03:55:56.253Z,4.32
2022-11-19T03:58:26.334Z,4.28
2022-11-19T04:00:53.461Z,4.38
2022-11-19T04:03:20.193Z,3.80
2022-11-19T04:05:46.747Z,4.55
2022-11-19T04:08:13.242Z,3.65
2022-11-19T04:10:39.675Z,3.53
2022-11-19T04:13:06.058Z,3.72
2022-11-19T04:15:32.529Z,2.83
2022-11-19T04:17:58.984Z,2.92
2022-11-19T04:20:25.398Z,6.53
2022-11-19T04:22:52.030Z,3.35
2022-11-19T04:25:18.822Z,4.32
2022-11-19T04:27:46.553Z,4.20
2022-11-19T04:30:14.264Z,4.03
2022-11-19T04:32:41.078Z,3.38
2022-11-19T04:35:07.877Z,5.25
2022-11-19T04:37:34.479Z,4.70
2022-11-19T04:40:01.115Z,3.13
2022-11-19T04:42:27.732Z,2.10
2022-11-19T04:44:54.235Z,4.00
2022-11-19T04:47:20.705Z,3.28
2022-11-19T04:49:47.179Z,3.00
2022-11-19T04:52:13.615Z,4.35
2022-11-19T04:54:40.613Z,2.15
2022-11-19T04:57:06.993Z,3.53
2022-11-19T04:59:33.429Z,1.67
2022-11-19T05:02:00.009Z,1.70
2022-11-19T05:04:26.586Z,2.17
2022-11-19T05:06:53.053Z,1.70
2022-11-19T05:09:19.687Z,1.40
2022-11-19T05:11:46.207Z,2.42
2022-11-19T05:14:12.678Z,1.30
2022-11-19T05:16:39.251Z,2.00
2022-11-19T05:19:05.763Z,1.30
2022-11-19T05:21:32.327Z,1.52
2022-11-19T05:23:58.803Z,1.08
2022-11-19T05:26:25.201Z,1.45
2022-11-19T05:28:51.609Z,1.15
2022-11-19T05:31:18.059Z,1.50
2022-11-19T05:33:44.493Z,1.13
2022-11-19T05:36:10.946Z,1.35
2022-11-19T05:38:37.442Z,1.30
2022-11-19T05:41:03.910Z,1.77
2022-11-19T05:43:30.603Z,2.15
2022-11-19T05:46:02.392Z,2.10
2022-11-19T05:48:29.856Z,1.38
2022-11-19T05:50:56.402Z,1.65
2022-11-19T05:53:22.956Z,2.05
2022-11-19T05:55:49.452Z,2.67
2022-11-19T05:58:16.008Z,1.83
2022-11-19T06:00:42.501Z,3.92
2022-11-19T06:03:09.685Z,1.55
2022-11-19T06:05:40.350Z,2.92
2022-11-19T06:08:07.364Z,2.33
2022-11-19T06:10:33.807Z,1.77
2022-11-19T06:13:00.230Z,1.92
2022-11-19T06:15:26.804Z,2.33
2022-11-19T06:17:53.227Z,2.22
2022-11-19T06:20:19.642Z,3.45
2022-11-19T06:22:46.076Z,2.70
2022-11-19T06:25:12.486Z,2.70
2022-11-19T06:27:38.914Z,2.40
2022-11-19T06:30:06.945Z,2.58
2022-11-19T06:32:33.575Z,2.15
2022-11-19T06:35:00.037Z,2.10
2022-11-19T06:37:26.593Z,2.78
2022-11-19T06:39:54.083Z,2.58
2022-11-19T06:42:38.957Z,3.63
2022-11-19T06:45:08.119Z,3.97
2022-11-19T06:47:34.760Z,2.83
2022-11-19T06:50:01.705Z,2.53
2022-11-19T06:52:28.517Z,2.58
2022-11-19T06:54:55.006Z,2.15
2022-11-19T06:57:21.514Z,2.70
2022-11-19T06:59:48.054Z,1.58
2022-11-19T07:02:17.847Z,1.90
2022-11-19T07:04:46.810Z,6.20
2022-11-19T07:07:13.253Z,3.85
2022-11-19T07:09:39.819Z,2.00
2022-11-19T07:12:07.395Z,1.73
2022-11-19T07:14:33.818Z,1.98
2022-11-19T07:17:00.364Z,1.80
2022-11-19T07:19:26.841Z,2.22
2022-11-19T07:21:53.297Z,1.70
2022-11-19T07:24:19.873Z,3.25
2022-11-19T07:26:46.359Z,2.05
2022-11-19T07:29:14.122Z,2.42
2022-11-19T07:31:41.172Z,2.63
2022-11-19T07:34:09.089Z,2.17
2022-11-19T07:36:36.046Z,3.63
2022-11-19T07:39:03.259Z,2.80
2022-11-19T07:41:48.203Z,2.60
2022-11-19T07:44:14.681Z,3.10
2022-11-19T07:46:41.426Z,2.70
2022-11-19T07:49:07.857Z,3.20
2022-11-19T07:51:34.279Z,4.00
2022-11-19T07:54:00.716Z,3.67
2022-11-19T07:56:27.114Z,3.03
2022-11-19T07:58:53.649Z,2.80
2022-11-19T08:01:22.423Z,3.60
2022-11-19T08:03:55.777Z,4.22
2022-11-19T08:06:24.943Z,5.70
2022-11-19T08:08:51.362Z,3.47
2022-11-19T08:11:18.322Z,3.35
2022-11-19T08:13:44.840Z,3.33
2022-11-19T08:16:13.689Z,5.43
2022-11-19T08:18:40.114Z,4.35
2022-11-19T08:21:10.202Z,4.15
2022-11-19T08:23:37.631Z,5.32
2022-11-19T08:26:06.432Z,3.58
2022-11-19T08:28:33.243Z,4.88
2022-11-19T08:31:07.547Z,5.20
2022-11-19T08:33:34.328Z,4.43
2022-11-19T08:36:00.835Z,4.50
2022-11-19T08:38:27.384Z,5.00
2022-11-19T08:41:14.168Z,4.57
2022-11-19T08:43:40.897Z,4.32
2022-11-19T08:46:08.153Z,4.97
2022-11-19T08:48:34.881Z,4.75
2022-11-19T08:51:04.221Z,5.60
2022-11-19T08:53:30.697Z,5.47
2022-11-19T08:55:57.104Z,5.70
2022-11-19T08:58:23.570Z,7.78
2022-11-19T09:00:50.124Z,5.82
2022-11-19T09:03:17.029Z,5.32
2022-11-19T09:05:43.899Z,6.97
2022-11-19T09:08:10.322Z,5.25
2022-11-19T09:10:37.870Z,5.60
2022-11-19T09:13:05.058Z,5.78
2022-11-19T09:15:31.569Z,5.47
2022-11-19T09:17:57.969Z,5.00
2022-11-19T09:20:24.420Z,5.07
2022-11-19T09:22:50.919Z,5.72
2022-11-19T09:25:17.452Z,4.50
2022-11-19T09:27:43.851Z,4.80
2022-11-19T09:30:10.464Z,4.75
2022-11-19T09:32:36.937Z,5.00
2022-11-19T09:35:03.445Z,4.72
2022-11-19T09:37:33.940Z,3.75
2022-11-19T09:40:00.626Z,3.63
2022-11-19T09:43:02.197Z,4.22
2022-11-19T09:45:37.713Z,4.03
2022-11-19T09:48:17.997Z,3.38
2022-11-19T09:51:12.788Z,3.65
2022-11-19T09:53:44.636Z,4.03
2022-11-19T09:56:16.794Z,3.42
2022-11-19T09:58:45.192Z,3.58
2022-11-19T10:01:17.246Z,4.93
2022-11-19T10:03:49.134Z,4.35
2022-11-19T10:06:15.641Z,3.40
2022-11-19T10:08:49.233Z,4.32
2022-11-19T10:11:30.906Z,4.32
2022-11-19T10:14:06.974Z,4.13
2022-11-19T10:17:08.229Z,3.95
2022-11-19T10:19:34.653Z,4.82
2022-11-19T10:22:18.070Z,5.05
2022-11-19T10:24:57.035Z,3.45
2022-11-19T10:27:30.065Z,3.25
2022-11-19T10:29:58.682Z,4.13
2022-11-19T10:32:31.350Z,3.97
2022-11-19T10:35:01.684Z,3.40
2022-11-19T10:37:33.824Z,4.45
2022-11-19T10:40:04.119Z,3.92
2022-11-19T10:42:36.913Z,3.50
2022-11-19T10:45:03.297Z,3.58
2022-11-19T10:47:47.633Z,5.20
2022-11-19T10:50:19.336Z,6.53
2022-11-19T10:52:50.971Z,4.00
2022-11-19T10:55:38.545Z,4.05
2022-11-19T10:58:15.225Z,4.65
2022-11-19T11:00:42.779Z,5.20
2022-11-19T11:03:25.681Z,4.55
2022-11-19T11:05:59.591Z,4.82
2022-11-19T11:08:26.054Z,5.32
2022-11-19T11:10:52.580Z,7.38
2022-11-19T11:13:47.921Z,5.85
2022-11-19T11:16:20.553Z,6.18
2022-11-19T11:18:48.043Z,5.50
2022-11-19T11:21:29.079Z,5.20
2022-11-19T11:23:56.145Z,6.88
2022-11-19T11:26:27.835Z,6.38
2022-11-19T11:28:59.329Z,5.57
2022-11-19T11:31:35.349Z,7.25
2022-11-19T11:34:02.384Z,6.15
2022-11-19T11:36:30.909Z,7.00
2022-11-19T11:38:58.598Z,6.00
2022-11-19T11:44:22.341Z,5.90
2022-11-19T11:46:55.503Z,5.93
2022-11-19T11:49:29.114Z,6.68
2022-11-19T11:52:18.731Z,5.68
2022-11-19T11:54:57.129Z,6.90
2022-11-19T11:57:28.240Z,6.17
2022-11-19T11:59:54.847Z,6.50
2022-11-19T12:02:33.099Z,6.20
2022-11-19T12:05:02.749Z,6.87
2022-11-19T12:07:51.037Z,7.35
2022-11-19T12:11:02.450Z,7.03
2022-11-19T12:13:44.554Z,6.80
2022-11-19T12:16:38.844Z,7.20
2022-11-19T12:19:38.165Z,10.05
2022-11-19T12:22:35.776Z,9.75
2022-11-19T12:25:18.162Z,7.57
2022-11-19T12:28:03.473Z,8.90
2022-11-19T12:30:46.074Z,9.02
2022-11-19T12:33:21.659Z,8.48
2022-11-19T12:35:56.937Z,9.88
2022-11-19T12:38:44.638Z,8.15
2022-11-19T12:41:23.014Z,8.50
2022-11-19T12:43:58.677Z,8.20
2022-11-19T12:46:37.134Z,8.27
2022-11-19T12:49:28.567Z,8.40
2022-11-19T12:52:44.463Z,9.32
2022-11-19T12:55:33.168Z,9.80
2022-11-19T12:58:23.304Z,9.55
2022-11-19T13:00:53.839Z,8.43
2022-11-19T13:03:25.815Z,8.18
2022-11-19T13:06:03.201Z,8.27
2022-11-19T13:08:51.605Z,8.80
2022-11-19T13:11:36.167Z,8.33
2022-11-19T13:14:12.805Z,8.32
2022-11-19T13:16:39.446Z,6.97
2022-11-19T13:19:18.605Z,10.20
2022-11-19T13:24:39.195Z,7.88
2022-11-19T13:27:09.891Z,7.38
2022-11-19T13:29:41.662Z,8.50
2022-11-19T13:32:38.806Z,7.95
2022-11-19T13:35:14.420Z,8.02
2022-11-19T13:38:04.509Z,6.68
2022-11-19T13:40:45.101Z,7.22
2022-11-19T13:43:33.782Z,6.85
2022-11-19T13:46:15.523Z,6.63
2022-11-19T13:48:55.769Z,8.02
2022-11-19T13:51:43.449Z,8.40
2022-11-19T13:54:48.982Z,7.57
2022-11-19T13:57:34.406Z,7.00
2022-11-19T14:00:05.538Z,7.43
2022-11-19T14:02:55.114Z,7.38
2022-11-19T14:05:46.863Z,6.63
2022-11-19T14:08:19.346Z,7.65
2022-11-19T14:11:27.442Z,6.22
2022-11-19T14:14:41.649Z,9.43
2022-11-19T14:17:39.757Z,6.25
2022-11-19T14:20:48.838Z,6.82
2022-11-19T14:24:05.587Z,8.98
2022-11-19T14:26:41.028Z,7.45
2022-11-19T14:29:27.398Z,7.10
2022-11-19T14:31:59.746Z,7.13
2022-11-19T14:34:29.190Z,8.55
2022-11-19T14:39:34.324Z,8.23
2022-11-19T14:42:16.122Z,8.07
2022-11-19T14:44:46.223Z,8.00
2022-11-19T14:47:28.740Z,9.98
2022-11-19T14:49:59.594Z,7.85
2022-11-19T14:52:35.094Z,7.22
2022-11-19T14:55:04.168Z,7.95
2022-11-19T14:57:40.072Z,9.40
2022-11-19T15:00:15.938Z,7.88
2022-11-19T15:02:46.049Z,7.82
2022-11-19T15:05:12.391Z,8.27
2022-11-19T15:07:41.912Z,7.28
2022-11-19T15:10:14.161Z,8.23
2022-11-19T15:12:43.607Z,9.35
2022-11-19T15:18:13.095Z,8.73
2022-11-19T15:21:07.697Z,10.13
2022-11-19T15:23:39.076Z,8.77
2022-11-19T15:26:17.447Z,10.40
2022-11-19T15:29:07.764Z,7.60
2022-11-19T15:31:55.109Z,10.02
2022-11-19T15:34:24.465Z,10.27
2022-11-19T15:36:56.007Z,9.57
2022-11-19T15:39:40.917Z,10.32
2022-11-19T15:42:12.432Z,10.05
2022-11-19T15:44:57.987Z,9.80
2022-11-19T15:47:30.481Z,10.18
2022-11-19T15:49:57.585Z,9.50
2022-11-19T15:52:28.963Z,12.18
2022-11-19T15:55:17.330Z,11.88
2022-11-19T15:57:44.270Z,11.10
2022-11-19T16:00:21.598Z,12.63
2022-11-19T16:02:49.779Z,12.82
2022-11-19T16:05:28.300Z,14.70
2022-11-19T16:07:56.329Z,13.35
2022-11-19T16:10:34.482Z,11.02
2022-11-19T16:13:21.690Z,12.68
2022-11-19T16:16:07.811Z,12.48
2022-11-19T16:18:48.142Z,11.88
2022-11-19T16:21:18.191Z,12.40
2022-11-19T16:24:04.653Z,13.48
2022-11-19T16:26:36.239Z,13.70
2022-11-19T16:29:02.718Z,12.40
2022-11-19T16:31:30.963Z,13.32
2022-11-19T16:33:58.795Z,12.90
2022-11-19T16:36:26.061Z,12.15
2022-11-19T16:38:53.483Z,10.95
2022-11-19T16:41:41.156Z,12.52
2022-11-19T16:44:16.655Z,11.52
2022-11-19T16:46:43.127Z,12.77
2022-11-19T16:49:28.859Z,11.50
2022-11-19T16:51:55.557Z,10.88
2022-11-19T16:54:44.643Z,10.90
2022-11-19T16:57:12.686Z,14.93
2022-11-19T16:59:39.429Z,11.23
2022-11-19T17:02:14.115Z,9.57
2022-11-19T17:04:49.209Z,11.57
2022-11-19T17:07:26.400Z,9.35
2022-11-19T17:10:31.097Z,9.07
2022-11-19T17:13:04.020Z,10.27
2022-11-19T17:15:33.555Z,9.10
2022-11-19T17:18:34.624Z,8.68
2022-11-19T17:21:17.926Z,9.07
2022-11-19T17:23:49.026Z,9.15
2022-11-19T17:26:17.415Z,9.90
2022-11-19T17:28:46.531Z,10.47
2022-11-19T17:31:31.494Z,11.43
2022-11-19T17:34:20.077Z,9.40
2022-11-19T17:36:46.671Z,10.57
2022-11-19T17:39:13.617Z,10.82
2022-11-19T17:41:59.197Z,11.80
2022-11-19T17:44:34.463Z,10.45
2022-11-19T17:47:21.060Z,9.77
2022-11-19T17:49:48.704Z,12.30
2022-11-19T17:52:26.342Z,11.45
2022-11-19T17:54:55.524Z,10.40
2022-11-19T17:57:22.006Z,9.90
2022-11-19T17:59:48.438Z,11.82
2022-11-19T18:02:17.149Z,11.63
2022-11-19T18:04:44.502Z,12.98
2022-11-19T18:07:12.057Z,13.25
2022-11-19T18:09:39.390Z,13.13
2022-11-19T18:12:07.773Z,13.57
2022-11-19T18:14:34.193Z,12.93
2022-11-19T18:17:00.638Z,15.07
2022-11-19T18:19:31.428Z,14.70
2022-11-19T18:21:57.922Z,14.55
2022-11-19T18:24:24.428Z,15.15
2022-11-19T18:26:50.840Z,16.05
2022-11-19T18:29:17.354Z,18.17
2022-11-19T18:31:45.867Z,16.38
2022-11-19T18:34:21.173Z,17.23
2022-11-19T18:36:47.954Z,16.33
2022-11-19T18:39:14.383Z,16.45
2022-11-19T18:41:41.246Z,16.27
2022-11-19T18:44:30.462Z,17.42
2022-11-19T18:49:23.624Z,18.58
2022-11-19T18:51:50.251Z,18.70
2022-11-19T18:54:16.994Z,17.10
2022-11-19T18:56:43.439Z,18.75
2022-11-19T18:59:13.571Z,19.40
2022-11-19T19:01:40.340Z,19.05
2022-11-19T19:04:07.530Z,18.35
2022-11-19T19:06:34.302Z,16.90
2022-11-19T19:09:00.836Z,16.85
2022-11-19T19:11:45.954Z,20.70
2022-11-19T19:14:12.445Z,20.33
2022-11-19T19:16:38.905Z,19.25
2022-11-19T19:19:05.488Z,17.70
2022-11-19T19:21:31.978Z,19.88
2022-11-19T19:23:58.398Z,20.83
2022-11-19T19:26:24.839Z,20.63
2022-11-19T19:28:53.680Z,22.08
2022-11-19T19:31:21.544Z,21.52
2022-11-19T19:33:48.120Z,22.63
2022-11-19T19:36:16.228Z,22.90
2022-11-19T19:38:43.139Z,22.67
2022-11-19T19:41:21.417Z,22.63
2022-11-19T19:43:49.413Z,22.25
2022-11-19T19:46:20.117Z,23.65
2022-11-19T19:48:49.157Z,24.10
2022-11-19T19:51:17.103Z,22.67
2022-11-19T19:53:43.709Z,23.52
2022-11-19T19:56:12.310Z,22.85
2022-11-19T19:58:39.313Z,24.10
2022-11-19T20:01:09.630Z,22.92
2022-11-19T20:03:36.783Z,23.48
2022-11-19T20:06:05.036Z,22.00
2022-11-19T20:08:31.504Z,22.27
2022-11-19T20:11:02.753Z,24.80
2022-11-19T20:13:29.311Z,21.90
2022-11-19T20:15:56.787Z,23.80
2022-11-19T20:18:25.305Z,21.52
2022-11-19T20:20:51.984Z,23.40
2022-11-19T20:23:18.442Z,22.75
2022-11-19T20:25:46.037Z,21.85
2022-11-19T20:28:12.459Z,22.20
2022-11-19T20:30:38.881Z,22.20
2022-11-19T20:33:05.418Z,23.42
2022-11-19T20:35:31.927Z,24.08
2022-11-19T20:38:02.227Z,23.23
2022-11-19T20:40:29.898Z,24.50
2022-11-19T20:43:16.532Z,23.55
2022-11-19T20:45:44.889Z,24.55
2022-11-19T20:48:12.529Z,23.83
2022-11-19T20:50:38.958Z,22.77
2022-11-19T20:53:05.411Z,25.50
2022-11-19T20:55:32.118Z,23.27
2022-11-19T20:58:00.092Z,23.63
2022-11-19T21:00:26.495Z,22.80
2022-11-19T21:02:52.968Z,23.85
2022-11-19T21:05:19.435Z,24.58
2022-11-19T21:07:45.853Z,22.27
2022-11-19T21:10:12.323Z,23.25
2022-11-19T21:12:58.775Z,22.77
2022-11-19T21:15:25.259Z,25.17
2022-11-19T21:17:51.744Z,24.15
2022-11-19T21:20:18.192Z,22.10
2022-11-19T21:22:47.899Z,24.15
2022-11-19T21:25:14.632Z,21.00
2022-11-19T21:27:41.120Z,23.92
2022-11-19T21:30:08.386Z,22.67
2022-11-19T21:32:34.862Z,21.25
2022-11-19T21:35:01.299Z,22.60
2022-11-19T21:37:27.818Z,21.70
2022-11-19T21:39:54.308Z,21.30
2022-11-19T21:42:20.714Z,22.42
2022-11-19T21:44:47.184Z,25.83
2022-11-19T21:47:13.595Z,24.70
2022-11-19T21:49:40.109Z,24.38
2022-11-19T21:52:07.139Z,22.65
2022-11-19T21:54:33.625Z,23.23
2022-11-19T21:57:00.567Z,22.63
2022-11-19T21:59:27.025Z,25.20
2022-11-19T22:01:54.878Z,21.65
2022-11-19T22:04:21.517Z,22.35
2022-11-19T22:06:48.002Z,24.17
2022-11-19T22:09:14.491Z,23.90
2022-11-19T22:11:40.931Z,23.55
2022-11-19T22:14:08.488Z,23.20
2022-11-19T22:16:37.043Z,23.27
2022-11-19T22:19:05.429Z,25.17
2022-11-19T22:21:32.253Z,27.33
2022-11-19T22:23:58.870Z,23.65
2022-11-19T22:26:25.990Z,23.75
2022-11-19T22:28:52.387Z,27.23
2022-11-19T22:31:18.833Z,26.98
2022-11-19T22:33:47.613Z,25.92
2022-11-19T22:36:14.064Z,24.05
2022-11-19T22:38:40.650Z,23.33
2022-11-19T22:41:18.301Z,22.30
2022-11-19T22:43:45.231Z,21.98
2022-11-19T22:46:13.196Z,23.95
2022-11-19T22:48:39.742Z,22.83
2022-11-19T22:51:08.581Z,21.80
2022-11-19T22:53:36.237Z,21.88
2022-11-19T22:56:05.245Z,21.38
2022-11-19T22:58:32.128Z,22.15
2022-11-19T23:00:58.668Z,21.52
2022-11-19T23:03:25.216Z,20.45
2022-11-19T23:05:53.014Z,19.83
2022-11-19T23:08:19.997Z,20.33
2022-11-19T23:10:46.986Z,20.65
2022-11-19T23:13:33.588Z,22.05
2022-11-19T23:16:09.095Z,17.55
2022-11-19T23:18:38.247Z,20.23
2022-11-19T23:21:10.219Z,19.85
2022-11-19T23:23:37.381Z,20.83
2022-11-19T23:26:05.055Z,22.20
2022-11-19T23:28:32.994Z,18.73
2022-11-19T23:31:07.545Z,19.23
2022-11-19T23:33:34.273Z,21.45
2022-11-19T23:36:21.953Z,20.25
2022-11-19T23:38:48.901Z,19.50
2022-11-19T23:41:17.006Z,19.05
2022-11-19T23:43:43.698Z,19.13
2022-11-19T23:46:15.285Z,21.33
2022-11-19T23:48:43.008Z,24.27
2022-11-19T23:51:12.050Z,22.27
2022-11-19T23:53:38.509Z,24.27
2022-11-19T23:56:05.541Z,26.52
2022-11-19T23:58:32.917Z,26.83
